首页
METAR-TAF:

METAR-TAF

机场 :

成吉思汗國際機場

乌兰巴托, 蒙古国

纬度: 47-55N, 经度: 106-52E, 海拔: 1306米

当前天气观测

该预报发布于27分钟前的04:00 UTC
风速2节,风向多变
温度 -13°C
湿度 72%
气压 1017 hPa
能見度: 8000
少量云层高于3300英尺
多云层高于25000英尺

METAR: ZMUB 180400Z VRB01MPS 8000NW FEW033 BKN250 M13/M17 Q1017 NOSIG RMK QFE655.2 72 NW MO

时间: 12:27 (04:27 UTC)

预报

该预报发布于5小时和49分钟前的22:38 UTC
预报有效从18日的 00点(UTC)到 19日的 06点(UTC)
风速4节,风向多变
能見度: 6000
散云层高于10000英尺
成为
从 18日的 03点(UTC)到 18日的 05点(UTC)
能见度10公里或以上
成为
从 18日的 21点(UTC)到 18日的 23点(UTC)
能見度: 6000
成为
从 19日的 03点(UTC)到 19日的 05点(UTC)
能见度10公里或以上

TAF: ZMUB 172238Z 1800/1906 VRB02MPS 6000 SCT100 TXM07/1807Z TNM25/1823Z BECMG 1803/1805 9999 NSW BECMG 1821/1823 6000 BECMG 1903/1905 9999 NSW

超过4000个机场的气象观测和天气预报(METAR&TAF报告)。

可查询的气象台以黄色和红色小点在地图上表示。

将鼠标移到小点上方,可查看气象台名称。

然后点击查看天气观测和预报。

如需切换地图:点击带黑十字的绿色按钮放大地图;点击带横线的绿色按钮缩小地图;或者点击绿色箭头查看邻近地区的地图。


METAR-TAF: